sensor_id;sensor_type;location;lat;lon;timestamp;P1;P2;P0
43479;PMS5003;29067;35.492;-97.520;2022-10-03T00:02:26;7;6;
43479;PMS5003;29067;35.492;-97.520;2022-10-03T00:05:09;3;3;
43479;PMS5003;29067;35.492;-97.520;2022-10-03T00:08:07;4;4;
43479;PMS5003;29067;35.492;-97.520;2022-10-03T00:10:48;4;4;
43479;PMS5003;29067;35.492;-97.520;2022-10-03T00:13:24;4;4;
43479;PMS5003;29067;35.492;-97.520;2022-10-03T00:16:03;20;20;
43479;PMS5003;29067;35.492;-97.520;2022-10-03T00:18:42;37;36;
43479;PMS5003;29067;35.492;-97.520;2022-10-03T00:21:22;20;20;
43479;PMS5003;29067;35.492;-97.520;2022-10-03T00:24:03;33;31;
43479;PMS5003;29067;35.492;-97.520;2022-10-03T00:26:44;11;10;
43479;PMS5003;29067;35.492;-97.520;2022-10-03T00:29:23;5;5;
43479;PMS5003;29067;35.492;-97.520;2022-10-03T00:32:03;4;4;
43479;PMS5003;29067;35.492;-97.520;2022-10-03T00:34:46;4;4;
43479;PMS5003;29067;35.492;-97.520;2022-10-03T00:37:29;4;4;
43479;PMS5003;29067;35.492;-97.520;2022-10-03T00:40:25;4;4;
43479;PMS5003;29067;35.492;-97.520;2022-10-03T00:43:11;4;4;
43479;PMS5003;29067;35.492;-97.520;2022-10-03T00:46:04;4;4;
43479;PMS5003;29067;35.492;-97.520;2022-10-03T00:48:55;4;4;
43479;PMS5003;29067;35.492;-97.520;2022-10-03T00:51:55;3;3;
43479;PMS5003;29067;35.492;-97.520;2022-10-03T00:54:43;5;4;
43479;PMS5003;29067;35.492;-97.520;2022-10-03T00:57:23;4;4;
43479;PMS5003;29067;35.492;-97.520;2022-10-03T01:00:13;5;5;
43479;PMS5003;29067;35.492;-97.520;2022-10-03T01:02:46;5;5;
43479;PMS5003;29067;35.492;-97.520;2022-10-03T01:05:29;5;5;
43479;PMS5003;29067;35.492;-97.520;2022-10-03T01:08:11;7;7;
43479;PMS5003;29067;35.492;-97.520;2022-10-03T01:10:57;6;6;
43479;PMS5003;29067;35.492;-97.520;2022-10-03T01:13:43;6;6;
43479;PMS5003;29067;35.492;-97.520;2022-10-03T01:16:24;10;9;
43479;PMS5003;29067;35.492;-97.520;2022-10-03T01:19:04;8;7;
43479;PMS5003;29067;35.492;-97.520;2022-10-03T01:21:49;7;7;
43479;PMS5003;29067;35.492;-97.520;2022-10-03T01:25:03;13;12;
43479;PMS5003;29067;35.492;-97.520;2022-10-03T01:27:42;7;7;
43479;PMS5003;29067;35.492;-97.520;2022-10-03T01:30:20;12;11;
43479;PMS5003;29067;35.492;-97.520;2022-10-03T01:32:50;4;4;
43479;PMS5003;29067;35.492;-97.520;2022-10-03T01:35:26;7;6;
43479;PMS5003;29067;35.492;-97.520;2022-10-03T01:38:06;6;6;
43479;PMS5003;29067;35.492;-97.520;2022-10-03T01:40:43;6;6;
43479;PMS5003;29067;35.492;-97.520;2022-10-03T01:43:20;7;7;
43479;PMS5003;29067;35.492;-97.520;2022-10-03T01:46:00;7;7;
43479;PMS5003;29067;35.492;-97.520;2022-10-03T01:48:37;6;6;
43479;PMS5003;29067;35.492;-97.520;2022-10-03T01:51:13;8;8;
43479;PMS5003;29067;35.492;-97.520;2022-10-03T01:53:52;5;5;
43479;PMS5003;29067;35.492;-97.520;2022-10-03T01:56:31;8;7;
43479;PMS5003;29067;35.492;-97.520;2022-10-03T01:59:04;5;4;
43479;PMS5003;29067;35.492;-97.520;2022-10-03T02:01:44;5;5;
43479;PMS5003;29067;35.492;-97.520;2022-10-03T02:04:19;5;5;
43479;PMS5003;29067;35.492;-97.520;2022-10-03T02:07:04;6;6;
43479;PMS5003;29067;35.492;-97.520;2022-10-03T02:09:44;5;5;
43479;PMS5003;29067;35.492;-97.520;2022-10-03T02:12:24;9;7;
43479;PMS5003;29067;35.492;-97.520;2022-10-03T02:14:58;5;5;
43479;PMS5003;29067;35.492;-97.520;2022-10-03T02:17:41;9;7;
43479;PMS5003;29067;35.492;-97.520;2022-10-03T02:20:18;6;6;
43479;PMS5003;29067;35.492;-97.520;2022-10-03T02:22:51;7;6;
43479;PMS5003;29067;35.492;-97.520;2022-10-03T02:25:24;4;4;
43479;PMS5003;29067;35.492;-97.520;2022-10-03T02:28:34;7;7;
43479;PMS5003;29067;35.492;-97.520;2022-10-03T02:31:26;5;5;
43479;PMS5003;29067;35.492;-97.520;2022-10-03T02:34:16;5;4;
43479;PMS5003;29067;35.492;-97.520;2022-10-03T02:37:05;7;6;
43479;PMS5003;29067;35.492;-97.520;2022-10-03T02:40:14;4;4;
43479;PMS5003;29067;35.492;-97.520;2022-10-03T02:45:26;5;5;
43479;PMS5003;29067;35.492;-97.520;2022-10-03T02:48:14;6;6;
43479;PMS5003;29067;35.492;-97.520;2022-10-03T02:51:04;4;4;
43479;PMS5003;29067;35.492;-97.520;2022-10-03T02:53:53;4;4;
43479;PMS5003;29067;35.492;-97.520;2022-10-03T02:57:10;4;4;
43479;PMS5003;29067;35.492;-97.520;2022-10-03T03:00:08;5;4;
43479;PMS5003;29067;35.492;-97.520;2022-10-03T03:03:48;6;5;
43479;PMS5003;29067;35.492;-97.520;2022-10-03T03:06:38;4;4;
43479;PMS5003;29067;35.492;-97.520;2022-10-03T03:09:40;4;4;
43479;PMS5003;29067;35.492;-97.520;2022-10-03T03:12:27;4;4;
43479;PMS5003;29067;35.492;-97.520;2022-10-03T03:15:33;5;5;
43479;PMS5003;29067;35.492;-97.520;2022-10-03T03:18:40;3;3;
43479;PMS5003;29067;35.492;-97.520;2022-10-03T03:21:22;4;4;
43479;PMS5003;29067;35.492;-97.520;2022-10-03T03:24:05;4;4;
43479;PMS5003;29067;35.492;-97.520;2022-10-03T03:26:54;4;4;
43479;PMS5003;29067;35.492;-97.520;2022-10-03T03:29:38;4;4;
43479;PMS5003;29067;35.492;-97.520;2022-10-03T03:32:18;3;3;
43479;PMS5003;29067;35.492;-97.520;2022-10-03T03:34:55;3;2;
43479;PMS5003;29067;35.492;-97.520;2022-10-03T03:37:33;4;3;
43479;PMS5003;29067;35.492;-97.520;2022-10-03T03:40:16;3;3;
43479;PMS5003;29067;35.492;-97.520;2022-10-03T03:43:02;4;3;
43479;PMS5003;29067;35.492;-97.520;2022-10-03T03:45:45;2;2;
43479;PMS5003;29067;35.492;-97.520;2022-10-03T03:48:28;2;2;
43479;PMS5003;29067;35.492;-97.520;2022-10-03T03:51:15;2;2;
43479;PMS5003;29067;35.492;-97.520;2022-10-03T03:53:59;3;2;
43479;PMS5003;29067;35.492;-97.520;2022-10-03T03:56:44;3;3;
43479;PMS5003;29067;35.492;-97.520;2022-10-03T03:59:28;3;3;
43479;PMS5003;29067;35.492;-97.520;2022-10-03T04:02:13;4;4;
43479;PMS5003;29067;35.492;-97.520;2022-10-03T04:04:55;2;2;
43479;PMS5003;29067;35.492;-97.520;2022-10-03T04:07:41;2;2;
43479;PMS5003;29067;35.492;-97.520;2022-10-03T04:10:24;4;3;
43479;PMS5003;29067;35.492;-97.520;2022-10-03T04:13:06;2;2;
43479;PMS5003;29067;35.492;-97.520;2022-10-03T04:15:49;3;3;
43479;PMS5003;29067;35.492;-97.520;2022-10-03T04:18:30;4;3;
43479;PMS5003;29067;35.492;-97.520;2022-10-03T04:21:17;2;2;
43479;PMS5003;29067;35.492;-97.520;2022-10-03T04:23:59;4;3;
43479;PMS5003;29067;35.492;-97.520;2022-10-03T04:26:42;3;3;
43479;PMS5003;29067;35.492;-97.520;2022-10-03T04:29:33;3;3;
43479;PMS5003;29067;35.492;-97.520;2022-10-03T04:32:13;2;2;
43479;PMS5003;29067;35.492;-97.520;2022-10-03T04:34:55;3;3;
43479;PMS5003;29067;35.492;-97.520;2022-10-03T04:37:38;3;3;
43479;PMS5003;29067;35.492;-97.520;2022-10-03T04:40:16;1;1;
43479;PMS5003;29067;35.492;-97.520;2022-10-03T04:42:58;3;3;
43479;PMS5003;29067;35.492;-97.520;2022-10-03T04:45:37;3;3;
43479;PMS5003;29067;35.492;-97.520;2022-10-03T04:48:27;3;3;
43479;PMS5003;29067;35.492;-97.520;2022-10-03T04:51:04;3;3;
43479;PMS5003;29067;35.492;-97.520;2022-10-03T04:53:48;2;2;
43479;PMS5003;29067;35.492;-97.520;2022-10-03T04:56:22;4;4;
43479;PMS5003;29067;35.492;-97.520;2022-10-03T04:59:08;4;3;
43479;PMS5003;29067;35.492;-97.520;2022-10-03T05:01:49;5;3;
43479;PMS5003;29067;35.492;-97.520;2022-10-03T05:04:25;4;3;
43479;PMS5003;29067;35.492;-97.520;2022-10-03T05:07:03;3;3;
43479;PMS5003;29067;35.492;-97.520;2022-10-03T05:09:38;4;3;
43479;PMS5003;29067;35.492;-97.520;2022-10-03T05:12:13;2;2;
43479;PMS5003;29067;35.492;-97.520;2022-10-03T05:14:51;3;3;
43479;PMS5003;29067;35.492;-97.520;2022-10-03T05:17:35;3;3;
43479;PMS5003;29067;35.492;-97.520;2022-10-03T05:20:17;4;4;
43479;PMS5003;29067;35.492;-97.520;2022-10-03T05:22:54;2;2;
43479;PMS5003;29067;35.492;-97.520;2022-10-03T05:25:35;1;1;
43479;PMS5003;29067;35.492;-97.520;2022-10-03T05:28:13;3;3;
43479;PMS5003;29067;35.492;-97.520;2022-10-03T05:30:49;5;3;
43479;PMS5003;29067;35.492;-97.520;2022-10-03T05:33:27;3;3;
43479;PMS5003;29067;35.492;-97.520;2022-10-03T05:36:08;3;3;
43479;PMS5003;29067;35.492;-97.520;2022-10-03T05:38:58;1;1;
43479;PMS5003;29067;35.492;-97.520;2022-10-03T05:41:49;2;2;
43479;PMS5003;29067;35.492;-97.520;2022-10-03T05:44:20;1;1;
43479;PMS5003;29067;35.492;-97.520;2022-10-03T05:46:58;3;3;
43479;PMS5003;29067;35.492;-97.520;2022-10-03T05:49:39;2;2;
43479;PMS5003;29067;35.492;-97.520;2022-10-03T05:52:25;2;2;
43479;PMS5003;29067;35.492;-97.520;2022-10-03T05:55:12;2;2;
43479;PMS5003;29067;35.492;-97.520;2022-10-03T05:58:30;6;4;
43479;PMS5003;29067;35.492;-97.520;2022-10-03T06:01:13;3;3;
43479;PMS5003;29067;35.492;-97.520;2022-10-03T06:04:05;3;2;
43479;PMS5003;29067;35.492;-97.520;2022-10-03T06:06:52;4;3;
43479;PMS5003;29067;35.492;-97.520;2022-10-03T06:09:38;3;2;
43479;PMS5003;29067;35.492;-97.520;2022-10-03T06:12:26;3;3;
43479;PMS5003;29067;35.492;-97.520;2022-10-03T06:15:08;4;3;
43479;PMS5003;29067;35.492;-97.520;2022-10-03T06:17:55;5;3;
43479;PMS5003;29067;35.492;-97.520;2022-10-03T06:20:39;2;2;
43479;PMS5003;29067;35.492;-97.520;2022-10-03T06:23:57;3;3;
43479;PMS5003;29067;35.492;-97.520;2022-10-03T06:27:04;4;3;
43479;PMS5003;29067;35.492;-97.520;2022-10-03T06:30:35;4;4;
43479;PMS5003;29067;35.492;-97.520;2022-10-03T06:33:29;3;3;
43479;PMS5003;29067;35.492;-97.520;2022-10-03T06:36:23;2;2;
43479;PMS5003;29067;35.492;-97.520;2022-10-03T06:41:12;4;3;
43479;PMS5003;29067;35.492;-97.520;2022-10-03T06:44:15;5;3;
43479;PMS5003;29067;35.492;-97.520;2022-10-03T06:47:01;5;4;
43479;PMS5003;29067;35.492;-97.520;2022-10-03T06:50:03;3;2;
43479;PMS5003;29067;35.492;-97.520;2022-10-03T06:53:15;4;3;
43479;PMS5003;29067;35.492;-97.520;2022-10-03T06:55:43;4;3;
43479;PMS5003;29067;35.492;-97.520;2022-10-03T06:58:38;4;3;
43479;PMS5003;29067;35.492;-97.520;2022-10-03T07:01:30;6;4;
43479;PMS5003;29067;35.492;-97.520;2022-10-03T07:05:33;3;3;
43479;PMS5003;29067;35.492;-97.520;2022-10-03T07:08:27;3;3;
43479;PMS5003;29067;35.492;-97.520;2022-10-03T07:11:22;3;3;
43479;PMS5003;29067;35.492;-97.520;2022-10-03T07:14:10;3;3;
43479;PMS5003;29067;35.492;-97.520;2022-10-03T07:17:06;2;2;
43479;PMS5003;29067;35.492;-97.520;2022-10-03T07:21:14;2;2;
43479;PMS5003;29067;35.492;-97.520;2022-10-03T07:24:01;4;3;
43479;PMS5003;29067;35.492;-97.520;2022-10-03T07:26:50;3;3;
43479;PMS5003;29067;35.492;-97.520;2022-10-03T07:29:35;3;3;
43479;PMS5003;29067;35.492;-97.520;2022-10-03T07:32:21;4;3;
43479;PMS5003;29067;35.492;-97.520;2022-10-03T07:37:12;3;3;
43479;PMS5003;29067;35.492;-97.520;2022-10-03T07:40:09;2;2;
43479;PMS5003;29067;35.492;-97.520;2022-10-03T07:42:59;3;3;
43479;PMS5003;29067;35.492;-97.520;2022-10-03T07:46:02;3;2;
43479;PMS5003;29067;35.492;-97.520;2022-10-03T07:48:53;2;2;
43479;PMS5003;29067;35.492;-97.520;2022-10-03T07:51:35;2;2;
43479;PMS5003;29067;35.492;-97.520;2022-10-03T07:54:52;3;3;
43479;PMS5003;29067;35.492;-97.520;2022-10-03T07:57:47;3;3;
43479;PMS5003;29067;35.492;-97.520;2022-10-03T08:00:39;3;3;
43479;PMS5003;29067;35.492;-97.520;2022-10-03T08:03:35;3;2;
43479;PMS5003;29067;35.492;-97.520;2022-10-03T08:06:29;2;2;
43479;PMS5003;29067;35.492;-97.520;2022-10-03T08:09:18;3;3;
43479;PMS5003;29067;35.492;-97.520;2022-10-03T08:12:35;3;3;
43479;PMS5003;29067;35.492;-97.520;2022-10-03T08:15:22;3;3;
43479;PMS5003;29067;35.492;-97.520;2022-10-03T08:18:00;3;3;
43479;PMS5003;29067;35.492;-97.520;2022-10-03T08:20:47;3;3;
43479;PMS5003;29067;35.492;-97.520;2022-10-03T08:23:59;5;4;
43479;PMS5003;29067;35.492;-97.520;2022-10-03T08:26:44;2;2;
43479;PMS5003;29067;35.492;-97.520;2022-10-03T08:29:26;4;3;
43479;PMS5003;29067;35.492;-97.520;2022-10-03T08:32:32;3;3;
43479;PMS5003;29067;35.492;-97.520;2022-10-03T08:35:28;4;4;
43479;PMS5003;29067;35.492;-97.520;2022-10-03T08:39:23;3;3;
43479;PMS5003;29067;35.492;-97.520;2022-10-03T08:42:07;3;3;
43479;PMS5003;29067;35.492;-97.520;2022-10-03T08:46:24;3;3;
43479;PMS5003;29067;35.492;-97.520;2022-10-03T08:49:16;4;3;
43479;PMS5003;29067;35.492;-97.520;2022-10-03T08:52:05;3;3;
43479;PMS5003;29067;35.492;-97.520;2022-10-03T08:54:49;3;3;
43479;PMS5003;29067;35.492;-97.520;2022-10-03T08:57:41;3;2;
43479;PMS5003;29067;35.492;-97.520;2022-10-03T09:00:32;4;3;
43479;PMS5003;29067;35.492;-97.520;2022-10-03T09:05:46;2;2;
43479;PMS5003;29067;35.492;-97.520;2022-10-03T09:09:14;2;2;
43479;PMS5003;29067;35.492;-97.520;2022-10-03T09:11:43;2;2;
43479;PMS5003;29067;35.492;-97.520;2022-10-03T09:14:31;3;3;
43479;PMS5003;29067;35.492;-97.520;2022-10-03T09:17:23;3;3;
43479;PMS5003;29067;35.492;-97.520;2022-10-03T09:19:45;2;2;
43479;PMS5003;29067;35.492;-97.520;2022-10-03T09:25:41;5;4;
43479;PMS5003;29067;35.492;-97.520;2022-10-03T09:29:33;2;2;
43479;PMS5003;29067;35.492;-97.520;2022-10-03T09:34:36;3;3;
43479;PMS5003;29067;35.492;-97.520;2022-10-03T09:37:32;1;1;
43479;PMS5003;29067;35.492;-97.520;2022-10-03T09:40:15;3;2;
43479;PMS5003;29067;35.492;-97.520;2022-10-03T09:43:00;3;3;
43479;PMS5003;29067;35.492;-97.520;2022-10-03T09:46:01;2;2;
43479;PMS5003;29067;35.492;-97.520;2022-10-03T09:48:57;3;3;
43479;PMS5003;29067;35.492;-97.520;2022-10-03T09:52:07;4;4;
43479;PMS5003;29067;35.492;-97.520;2022-10-03T09:55:02;2;2;
43479;PMS5003;29067;35.492;-97.520;2022-10-03T09:57:49;2;2;
43479;PMS5003;29067;35.492;-97.520;2022-10-03T10:00:29;3;3;
43479;PMS5003;29067;35.492;-97.520;2022-10-03T10:03:53;3;3;
43479;PMS5003;29067;35.492;-97.520;2022-10-03T10:07:02;3;3;
43479;PMS5003;29067;35.492;-97.520;2022-10-03T10:09:34;3;3;
43479;PMS5003;29067;35.492;-97.520;2022-10-03T10:15:35;6;3;
43479;PMS5003;29067;35.492;-97.520;2022-10-03T10:18:56;4;4;
43479;PMS5003;29067;35.492;-97.520;2022-10-03T10:21:49;4;3;
43479;PMS5003;29067;35.492;-97.520;2022-10-03T10:24:34;2;2;
43479;PMS5003;29067;35.492;-97.520;2022-10-03T10:27:40;3;3;
43479;PMS5003;29067;35.492;-97.520;2022-10-03T10:30:32;3;3;
43479;PMS5003;29067;35.492;-97.520;2022-10-03T10:36:37;3;3;
43479;PMS5003;29067;35.492;-97.520;2022-10-03T10:39:54;3;3;
43479;PMS5003;29067;35.492;-97.520;2022-10-03T10:42:55;3;3;
43479;PMS5003;29067;35.492;-97.520;2022-10-03T10:46:08;3;3;
43479;PMS5003;29067;35.492;-97.520;2022-10-03T10:49:02;8;8;
43479;PMS5003;29067;35.492;-97.520;2022-10-03T10:52:02;7;6;
43479;PMS5003;29067;35.492;-97.520;2022-10-03T10:54:51;8;8;
43479;PMS5003;29067;35.492;-97.520;2022-10-03T10:58:44;8;8;
43479;PMS5003;29067;35.492;-97.520;2022-10-03T11:03:15;16;15;
43479;PMS5003;29067;35.492;-97.520;2022-10-03T11:06:45;5;4;
43479;PMS5003;29067;35.492;-97.520;2022-10-03T11:09:40;5;4;
43479;PMS5003;29067;35.492;-97.520;2022-10-03T11:12:42;3;3;
43479;PMS5003;29067;35.492;-97.520;2022-10-03T11:16:29;5;4;
43479;PMS5003;29067;35.492;-97.520;2022-10-03T11:19:31;4;3;
43479;PMS5003;29067;35.492;-97.520;2022-10-03T11:24:10;4;4;
43479;PMS5003;29067;35.492;-97.520;2022-10-03T11:27:06;4;4;
43479;PMS5003;29067;35.492;-97.520;2022-10-03T11:31:39;4;4;
43479;PMS5003;29067;35.492;-97.520;2022-10-03T11:36:52;4;4;
43479;PMS5003;29067;35.492;-97.520;2022-10-03T11:39:36;6;4;
43479;PMS5003;29067;35.492;-97.520;2022-10-03T11:42:12;7;6;
43479;PMS5003;29067;35.492;-97.520;2022-10-03T11:44:54;5;4;
43479;PMS5003;29067;35.492;-97.520;2022-10-03T11:47:28;4;4;
43479;PMS5003;29067;35.492;-97.520;2022-10-03T11:50:41;3;3;
43479;PMS5003;29067;35.492;-97.520;2022-10-03T11:53:15;3;3;
43479;PMS5003;29067;35.492;-97.520;2022-10-03T11:55:48;4;4;
43479;PMS5003;29067;35.492;-97.520;2022-10-03T11:58:24;4;3;
43479;PMS5003;29067;35.492;-97.520;2022-10-03T12:01:03;4;4;
43479;PMS5003;29067;35.492;-97.520;2022-10-03T12:03:47;7;7;
43479;PMS5003;29067;35.492;-97.520;2022-10-03T12:06:24;4;4;
43479;PMS5003;29067;35.492;-97.520;2022-10-03T12:09:05;3;3;
43479;PMS5003;29067;35.492;-97.520;2022-10-03T12:11:45;5;4;
43479;PMS5003;29067;35.492;-97.520;2022-10-03T12:14:23;5;5;
43479;PMS5003;29067;35.492;-97.520;2022-10-03T12:16:57;6;5;
43479;PMS5003;29067;35.492;-97.520;2022-10-03T12:19:35;7;5;
43479;PMS5003;29067;35.492;-97.520;2022-10-03T12:22:15;5;4;
43479;PMS5003;29067;35.492;-97.520;2022-10-03T12:24:53;6;5;
43479;PMS5003;29067;35.492;-97.520;2022-10-03T12:27:28;6;5;
43479;PMS5003;29067;35.492;-97.520;2022-10-03T12:30:03;5;5;
43479;PMS5003;29067;35.492;-97.520;2022-10-03T12:32:40;5;5;
43479;PMS5003;29067;35.492;-97.520;2022-10-03T12:35:25;6;5;
43479;PMS5003;29067;35.492;-97.520;2022-10-03T12:38:11;7;5;
43479;PMS5003;29067;35.492;-97.520;2022-10-03T12:40:55;8;5;
43479;PMS5003;29067;35.492;-97.520;2022-10-03T12:43:38;9;6;
43479;PMS5003;29067;35.492;-97.520;2022-10-03T12:46:16;5;5;
43479;PMS5003;29067;35.492;-97.520;2022-10-03T12:48:58;5;5;
43479;PMS5003;29067;35.492;-97.520;2022-10-03T12:51:34;7;7;
43479;PMS5003;29067;35.492;-97.520;2022-10-03T12:54:16;7;7;
43479;PMS5003;29067;35.492;-97.520;2022-10-03T12:57:00;8;7;
43479;PMS5003;29067;35.492;-97.520;2022-10-03T12:59:46;8;8;
43479;PMS5003;29067;35.492;-97.520;2022-10-03T13:02:23;5;5;
43479;PMS5003;29067;35.492;-97.520;2022-10-03T13:05:01;8;7;
43479;PMS5003;29067;35.492;-97.520;2022-10-03T13:08:05;5;5;
43479;PMS5003;29067;35.492;-97.520;2022-10-03T13:10:51;6;5;
43479;PMS5003;29067;35.492;-97.520;2022-10-03T13:13:29;7;6;
43479;PMS5003;29067;35.492;-97.520;2022-10-03T13:16:06;23;23;
43479;PMS5003;29067;35.492;-97.520;2022-10-03T13:18:46;9;9;
43479;PMS5003;29067;35.492;-97.520;2022-10-03T13:21:21;8;7;
43479;PMS5003;29067;35.492;-97.520;2022-10-03T13:23:56;7;5;
43479;PMS5003;29067;35.492;-97.520;2022-10-03T13:26:31;8;8;
43479;PMS5003;29067;35.492;-97.520;2022-10-03T13:29:12;8;8;
43479;PMS5003;29067;35.492;-97.520;2022-10-03T13:31:58;7;7;
43479;PMS5003;29067;35.492;-97.520;2022-10-03T13:34:35;8;8;
43479;PMS5003;29067;35.492;-97.520;2022-10-03T13:37:13;8;7;
43479;PMS5003;29067;35.492;-97.520;2022-10-03T13:39:50;10;10;
43479;PMS5003;29067;35.492;-97.520;2022-10-03T13:42:21;10;9;
43479;PMS5003;29067;35.492;-97.520;2022-10-03T13:45:01;9;9;
43479;PMS5003;29067;35.492;-97.520;2022-10-03T13:47:41;9;9;
43479;PMS5003;29067;35.492;-97.520;2022-10-03T13:50:13;9;8;
43479;PMS5003;29067;35.492;-97.520;2022-10-03T13:52:48;9;9;
43479;PMS5003;29067;35.492;-97.520;2022-10-03T13:55:26;12;10;
43479;PMS5003;29067;35.492;-97.520;2022-10-03T13:58:09;8;8;
43479;PMS5003;29067;35.492;-97.520;2022-10-03T14:00:53;9;8;
43479;PMS5003;29067;35.492;-97.520;2022-10-03T14:03:35;7;7;
43479;PMS5003;29067;35.492;-97.520;2022-10-03T14:06:14;10;8;
43479;PMS5003;29067;35.492;-97.520;2022-10-03T14:08:54;11;11;
43479;PMS5003;29067;35.492;-97.520;2022-10-03T14:11:42;12;10;
43479;PMS5003;29067;35.492;-97.520;2022-10-03T14:14:26;10;10;
43479;PMS5003;29067;35.492;-97.520;2022-10-03T14:17:09;11;10;
43479;PMS5003;29067;35.492;-97.520;2022-10-03T14:19:44;14;12;
43479;PMS5003;29067;35.492;-97.520;2022-10-03T14:22:35;12;12;
43479;PMS5003;29067;35.492;-97.520;2022-10-03T14:25:22;15;11;
43479;PMS5003;29067;35.492;-97.520;2022-10-03T14:27:54;17;17;
43479;PMS5003;29067;35.492;-97.520;2022-10-03T14:30:29;11;11;
43479;PMS5003;29067;35.492;-97.520;2022-10-03T14:33:05;11;10;
43479;PMS5003;29067;35.492;-97.520;2022-10-03T14:35:50;20;18;
43479;PMS5003;29067;35.492;-97.520;2022-10-03T14:38:31;15;15;
43479;PMS5003;29067;35.492;-97.520;2022-10-03T14:41:16;21;21;
43479;PMS5003;29067;35.492;-97.520;2022-10-03T14:43:48;8;7;
43479;PMS5003;29067;35.492;-97.520;2022-10-03T14:46:19;10;9;
43479;PMS5003;29067;35.492;-97.520;2022-10-03T14:48:51;12;12;
43479;PMS5003;29067;35.492;-97.520;2022-10-03T14:51:25;8;8;
43479;PMS5003;29067;35.492;-97.520;2022-10-03T14:53:57;10;10;
43479;PMS5003;29067;35.492;-97.520;2022-10-03T14:56:29;9;9;
43479;PMS5003;29067;35.492;-97.520;2022-10-03T14:59:02;21;20;
43479;PMS5003;29067;35.492;-97.520;2022-10-03T15:01:45;27;27;
43479;PMS5003;29067;35.492;-97.520;2022-10-03T15:04:16;12;11;
43479;PMS5003;29067;35.492;-97.520;2022-10-03T15:06:53;10;10;
43479;PMS5003;29067;35.492;-97.520;2022-10-03T15:09:24;11;10;
43479;PMS5003;29067;35.492;-97.520;2022-10-03T15:11:58;10;10;
43479;PMS5003;29067;35.492;-97.520;2022-10-03T15:14:33;11;10;
43479;PMS5003;29067;35.492;-97.520;2022-10-03T15:17:06;12;11;
43479;PMS5003;29067;35.492;-97.520;2022-10-03T15:19:45;13;13;
43479;PMS5003;29067;35.492;-97.520;2022-10-03T15:22:21;11;11;
43479;PMS5003;29067;35.492;-97.520;2022-10-03T15:24:55;12;11;
43479;PMS5003;29067;35.492;-97.520;2022-10-03T15:27:31;13;12;
43479;PMS5003;29067;35.492;-97.520;2022-10-03T15:30:01;12;11;
43479;PMS5003;29067;35.492;-97.520;2022-10-03T15:32:33;10;10;
43479;PMS5003;29067;35.492;-97.520;2022-10-03T15:35:04;11;11;
43479;PMS5003;29067;35.492;-97.520;2022-10-03T15:37:34;9;9;
43479;PMS5003;29067;35.492;-97.520;2022-10-03T15:40:06;12;11;
43479;PMS5003;29067;35.492;-97.520;2022-10-03T15:42:49;11;11;
43479;PMS5003;29067;35.492;-97.520;2022-10-03T15:45:27;11;11;
43479;PMS5003;29067;35.492;-97.520;2022-10-03T15:48:00;16;13;
43479;PMS5003;29067;35.492;-97.520;2022-10-03T15:50:36;11;11;
43479;PMS5003;29067;35.492;-97.520;2022-10-03T15:53:07;11;10;
43479;PMS5003;29067;35.492;-97.520;2022-10-03T15:55:43;15;14;
43479;PMS5003;29067;35.492;-97.520;2022-10-03T15:58:16;11;10;
43479;PMS5003;29067;35.492;-97.520;2022-10-03T16:00:51;14;14;
43479;PMS5003;29067;35.492;-97.520;2022-10-03T16:03:30;12;12;
43479;PMS5003;29067;35.492;-97.520;2022-10-03T16:06:02;11;11;
43479;PMS5003;29067;35.492;-97.520;2022-10-03T16:08:36;12;12;
43479;PMS5003;29067;35.492;-97.520;2022-10-03T16:11:16;13;11;
43479;PMS5003;29067;35.492;-97.520;2022-10-03T16:13:51;13;12;
43479;PMS5003;29067;35.492;-97.520;2022-10-03T16:16:33;13;13;
43479;PMS5003;29067;35.492;-97.520;2022-10-03T16:19:14;11;11;
43479;PMS5003;29067;35.492;-97.520;2022-10-03T16:21:54;11;10;
43479;PMS5003;29067;35.492;-97.520;2022-10-03T16:24:33;11;11;
43479;PMS5003;29067;35.492;-97.520;2022-10-03T16:27:12;12;12;
43479;PMS5003;29067;35.492;-97.520;2022-10-03T16:29:47;10;10;
43479;PMS5003;29067;35.492;-97.520;2022-10-03T16:32:23;12;10;
43479;PMS5003;29067;35.492;-97.520;2022-10-03T16:34:56;10;10;
43479;PMS5003;29067;35.492;-97.520;2022-10-03T16:37:27;8;8;
43479;PMS5003;29067;35.492;-97.520;2022-10-03T16:39:57;7;7;
43479;PMS5003;29067;35.492;-97.520;2022-10-03T16:42:34;11;10;
43479;PMS5003;29067;35.492;-97.520;2022-10-03T16:45:17;10;10;
43479;PMS5003;29067;35.492;-97.520;2022-10-03T16:47:50;9;9;
43479;PMS5003;29067;35.492;-97.520;2022-10-03T16:50:20;9;9;
43479;PMS5003;29067;35.492;-97.520;2022-10-03T16:52:49;12;12;
43479;PMS5003;29067;35.492;-97.520;2022-10-03T16:55:21;10;9;
43479;PMS5003;29067;35.492;-97.520;2022-10-03T16:57:55;8;8;
43479;PMS5003;29067;35.492;-97.520;2022-10-03T17:00:27;10;10;
43479;PMS5003;29067;35.492;-97.520;2022-10-03T17:03:15;11;11;
43479;PMS5003;29067;35.492;-97.520;2022-10-03T17:05:45;10;10;
43479;PMS5003;29067;35.492;-97.520;2022-10-03T17:08:17;10;9;
43479;PMS5003;29067;35.492;-97.520;2022-10-03T17:10:51;9;9;
43479;PMS5003;29067;35.492;-97.520;2022-10-03T17:13:21;12;11;
43479;PMS5003;29067;35.492;-97.520;2022-10-03T17:15:55;9;9;
43479;PMS5003;29067;35.492;-97.520;2022-10-03T17:18:32;10;10;
43479;PMS5003;29067;35.492;-97.520;2022-10-03T17:21:07;8;8;
43479;PMS5003;29067;35.492;-97.520;2022-10-03T17:23:45;9;8;
43479;PMS5003;29067;35.492;-97.520;2022-10-03T17:26:22;9;8;
43479;PMS5003;29067;35.492;-97.520;2022-10-03T17:28:53;11;11;
43479;PMS5003;29067;35.492;-97.520;2022-10-03T17:31:30;9;9;
43479;PMS5003;29067;35.492;-97.520;2022-10-03T17:34:03;10;10;
43479;PMS5003;29067;35.492;-97.520;2022-10-03T17:37:34;8;8;
43479;PMS5003;29067;35.492;-97.520;2022-10-03T17:40:49;13;13;
43479;PMS5003;29067;35.492;-97.520;2022-10-03T17:43:28;11;11;
43479;PMS5003;29067;35.492;-97.520;2022-10-03T17:46:05;20;20;
43479;PMS5003;29067;35.492;-97.520;2022-10-03T17:48:43;11;11;
43479;PMS5003;29067;35.492;-97.520;2022-10-03T17:51:27;10;10;
43479;PMS5003;29067;35.492;-97.520;2022-10-03T17:53:59;6;6;
43479;PMS5003;29067;35.492;-97.520;2022-10-03T17:56:31;8;8;
43479;PMS5003;29067;35.492;-97.520;2022-10-03T17:59:02;5;5;
43479;PMS5003;29067;35.492;-97.520;2022-10-03T18:01:39;8;8;
43479;PMS5003;29067;35.492;-97.520;2022-10-03T18:04:14;7;6;
43479;PMS5003;29067;35.492;-97.520;2022-10-03T18:06:46;7;6;
43479;PMS5003;29067;35.492;-97.520;2022-10-03T18:09:19;7;6;
43479;PMS5003;29067;35.492;-97.520;2022-10-03T18:11:53;5;5;
43479;PMS5003;29067;35.492;-97.520;2022-10-03T18:14:31;5;5;
43479;PMS5003;29067;35.492;-97.520;2022-10-03T18:17:11;6;6;
43479;PMS5003;29067;35.492;-97.520;2022-10-03T18:19:48;7;7;
43479;PMS5003;29067;35.492;-97.520;2022-10-03T18:22:26;5;5;
43479;PMS5003;29067;35.492;-97.520;2022-10-03T18:24:58;7;7;
43479;PMS5003;29067;35.492;-97.520;2022-10-03T18:27:45;8;7;
43479;PMS5003;29067;35.492;-97.520;2022-10-03T18:30:31;8;8;
43479;PMS5003;29067;35.492;-97.520;2022-10-03T18:33:06;6;6;
43479;PMS5003;29067;35.492;-97.520;2022-10-03T18:35:41;8;8;
43479;PMS5003;29067;35.492;-97.520;2022-10-03T18:38:13;6;6;
43479;PMS5003;29067;35.492;-97.520;2022-10-03T18:40:47;6;6;